createdAt,value
2023-01-08T00:00:52.027Z,90.07
2023-01-08T00:01:51.921Z,89.97
2023-01-08T00:02:51.951Z,89.97
2023-01-08T00:03:51.998Z,90.07
2023-01-08T00:04:51.873Z,90.17
2023-01-08T00:05:51.887Z,90.37
2023-01-08T00:06:51.845Z,90.48
2023-01-08T00:07:51.853Z,90.58
2023-01-08T00:08:51.824Z,90.69
2023-01-08T00:09:51.826Z,90.69
2023-01-08T00:10:51.804Z,90.89
2023-01-08T00:11:51.827Z,90.89
2023-01-08T00:12:51.815Z,90.79
2023-01-08T00:13:51.839Z,90.79
2023-01-08T00:14:51.752Z,90.89
2023-01-08T00:15:51.774Z,90.99
2023-01-08T00:16:51.844Z,90.89
2023-01-08T00:17:51.746Z,90.89
2023-01-08T00:18:51.796Z,90.79
2023-01-08T00:19:51.741Z,90.89
2023-01-08T00:20:51.692Z,90.89
2023-01-08T00:21:51.770Z,90.79
2023-01-08T00:22:51.687Z,90.69
2023-01-08T00:23:51.670Z,90.69
2023-01-08T00:24:51.656Z,90.89
2023-01-08T00:25:51.732Z,90.99
2023-01-08T00:26:51.668Z,91.09
2023-01-08T00:27:51.670Z,91.30
2023-01-08T00:28:51.622Z,91.40
2023-01-08T00:29:51.615Z,91.50
2023-01-08T00:30:51.632Z,91.61
2023-01-08T00:31:51.595Z,91.82
2023-01-08T00:32:51.573Z,91.91
2023-01-08T00:33:51.630Z,91.82
2023-01-08T00:34:51.554Z,91.91
2023-01-08T00:35:51.585Z,91.91
2023-01-08T00:36:51.529Z,91.91
2023-01-08T00:37:51.741Z,91.91
2023-01-08T00:38:51.591Z,92.02
2023-01-08T00:39:51.513Z,91.91
2023-01-08T00:40:51.489Z,91.91
2023-01-08T00:41:51.478Z,91.82
2023-01-08T00:42:51.464Z,91.82
2023-01-08T00:43:51.515Z,91.61
2023-01-08T00:44:51.505Z,91.50
2023-01-08T00:45:51.534Z,91.40
2023-01-08T00:46:51.413Z,91.50
2023-01-08T00:47:51.419Z,91.61
2023-01-08T00:48:51.591Z,91.50
2023-01-08T00:49:51.415Z,91.91
2023-01-08T00:50:51.365Z,91.61
2023-01-08T00:51:51.374Z,91.61
2023-01-08T00:52:51.380Z,91.61
2023-01-08T00:53:51.478Z,91.61
2023-01-08T00:54:51.478Z,91.61
2023-01-08T00:55:51.321Z,91.40
2023-01-08T00:56:51.352Z,91.40
2023-01-08T00:57:51.301Z,91.50
2023-01-08T00:58:51.282Z,91.40
2023-01-08T00:59:51.304Z,91.50
2023-01-08T01:00:51.326Z,91.30
2023-01-08T01:01:51.488Z,91.30
2023-01-08T01:02:51.245Z,91.20
2023-01-08T01:03:51.314Z,90.99
2023-01-08T01:04:52.359Z,91.09
2023-01-08T01:05:51.223Z,91.09
2023-01-08T01:06:51.243Z,90.89
2023-01-08T01:07:51.213Z,91.20
2023-01-08T01:08:51.285Z,91.20
2023-01-08T01:09:51.245Z,91.50
2023-01-08T01:10:51.164Z,91.61
2023-01-08T01:11:51.179Z,91.30
2023-01-08T01:12:51.154Z,91.40
2023-01-08T01:13:51.160Z,91.30
2023-01-08T01:14:51.107Z,91.09
2023-01-08T01:15:51.135Z,90.79
2023-01-08T01:16:51.265Z,90.69
2023-01-08T01:17:51.094Z,90.89
2023-01-08T01:18:51.222Z,90.69
2023-01-08T01:19:51.073Z,90.58
2023-01-08T01:20:51.083Z,90.79
2023-01-08T01:21:51.045Z,90.48
2023-01-08T01:22:51.085Z,90.37
2023-01-08T01:23:51.030Z,90.13
2023-01-08T01:24:51.051Z,90.03
2023-01-08T01:25:51.398Z,90.03
2023-01-08T01:26:51.026Z,90.13
2023-01-08T01:27:51.000Z,90.34
2023-01-08T01:28:51.297Z,90.54
2023-01-08T01:29:50.980Z,90.23
2023-01-08T01:30:51.025Z,90.23
2023-01-08T01:31:50.955Z,90.37
2023-01-08T01:32:50.951Z,90.48
2023-01-08T01:33:50.900Z,90.58
2023-01-08T01:34:50.924Z,90.48
2023-01-08T01:35:50.940Z,90.17
2023-01-08T01:36:50.890Z,90.07
2023-01-08T01:37:50.868Z,90.07
2023-01-08T01:38:51.124Z,90.17
2023-01-08T01:39:50.846Z,90.37
2023-01-08T01:40:50.839Z,90.48
2023-01-08T01:41:50.843Z,90.48
2023-01-08T01:42:50.857Z,90.37
2023-01-08T01:43:50.806Z,90.48
2023-01-08T01:44:50.790Z,90.48
2023-01-08T01:45:50.820Z,90.28
2023-01-08T01:46:50.775Z,90.48
2023-01-08T01:47:50.769Z,90.37
2023-01-08T01:48:50.765Z,90.48
2023-01-08T01:49:50.745Z,90.58
2023-01-08T01:50:50.752Z,90.37
2023-01-08T01:51:50.742Z,90.17
2023-01-08T01:52:50.710Z,89.97
2023-01-08T01:53:50.760Z,90.17
2023-01-08T01:54:50.690Z,90.17
2023-01-08T01:55:50.672Z,90.07
2023-01-08T01:56:50.689Z,90.17
2023-01-08T01:57:50.683Z,90.17
2023-01-08T01:58:50.674Z,90.17
2023-01-08T01:59:50.649Z,90.07
2023-01-08T02:00:50.610Z,90.28
2023-01-08T02:01:50.719Z,90.07
2023-01-08T02:02:50.608Z,90.17
2023-01-08T02:03:50.623Z,89.97
2023-01-08T02:04:50.580Z,89.97
2023-01-08T02:05:50.602Z,90.17
2023-01-08T02:06:50.585Z,90.28
2023-01-08T02:07:50.623Z,90.37
2023-01-08T02:08:51.079Z,90.48
2023-01-08T02:09:50.537Z,90.73
2023-01-08T02:10:50.509Z,90.73
2023-01-08T02:11:50.494Z,90.58
2023-01-08T02:12:50.508Z,90.48
2023-01-08T02:13:50.515Z,90.58
2023-01-08T02:14:50.491Z,90.37
2023-01-08T02:15:50.464Z,90.48
2023-01-08T02:16:50.678Z,90.48
2023-01-08T02:17:50.579Z,90.37
2023-01-08T02:18:50.458Z,90.07
2023-01-08T02:19:50.472Z,89.97
2023-01-08T02:20:50.399Z,89.97
2023-01-08T02:21:50.405Z,90.07
2023-01-08T02:22:50.383Z,90.07
2023-01-08T02:23:50.526Z,90.17
2023-01-08T02:24:50.448Z,90.07
2023-01-08T02:25:50.364Z,90.07
2023-01-08T02:26:50.377Z,89.97
2023-01-08T02:27:50.338Z,89.97
2023-01-08T02:28:50.319Z,89.97
2023-01-08T02:29:50.425Z,89.97
2023-01-08T02:30:50.358Z,89.97
2023-01-08T02:31:50.285Z,90.17
2023-01-08T02:32:50.283Z,90.28
2023-01-08T02:33:50.251Z,90.48
2023-01-08T02:34:50.278Z,90.69
2023-01-08T02:35:50.240Z,90.93
2023-01-08T02:36:50.222Z,90.93
2023-01-08T02:37:50.213Z,91.03
2023-01-08T02:38:50.220Z,91.14
2023-01-08T02:39:50.209Z,91.14
2023-01-08T02:40:50.192Z,91.24
2023-01-08T02:41:50.179Z,91.24
2023-01-08T02:42:50.204Z,91.24
2023-01-08T02:43:50.206Z,91.14
2023-01-08T02:44:50.159Z,91.03
2023-01-08T02:45:50.219Z,90.83
2023-01-08T02:46:50.129Z,90.93
2023-01-08T02:47:50.107Z,90.73
2023-01-08T02:48:50.109Z,90.93
2023-01-08T02:49:50.109Z,90.83
2023-01-08T02:50:50.094Z,90.83
2023-01-08T02:51:50.067Z,91.03
2023-01-08T02:52:50.063Z,90.93
2023-01-08T02:53:50.054Z,90.83
2023-01-08T02:54:50.059Z,90.93
2023-01-08T02:55:50.031Z,91.03
2023-01-08T02:56:50.085Z,91.03
2023-01-08T02:57:50.011Z,91.14
2023-01-08T02:58:50.046Z,91.24
2023-01-08T02:59:50.021Z,91.14
2023-01-08T03:00:49.976Z,91.03
2023-01-08T03:01:50.126Z,91.14
2023-01-08T03:02:50.724Z,91.03
2023-01-08T03:03:50.186Z,90.93
2023-01-08T03:04:49.930Z,90.62
2023-01-08T03:05:49.945Z,90.62
2023-01-08T03:06:49.919Z,90.73
2023-01-08T03:07:49.918Z,90.83
2023-01-08T03:08:50.020Z,90.93
2023-01-08T03:09:49.885Z,91.03
2023-01-08T03:10:49.939Z,91.14
2023-01-08T03:11:49.847Z,91.14
2023-01-08T03:12:49.847Z,90.93
2023-01-08T03:13:49.828Z,91.03
2023-01-08T03:14:49.830Z,91.14
2023-01-08T03:15:49.802Z,90.93
2023-01-08T03:16:49.901Z,90.83
2023-01-08T03:17:49.962Z,90.83
2023-01-08T03:18:49.781Z,90.83
2023-01-08T03:19:49.766Z,90.93
2023-01-08T03:20:49.791Z,91.03
2023-01-08T03:21:49.737Z,91.24
2023-01-08T03:22:49.746Z,91.03
2023-01-08T03:23:49.732Z,90.93
2023-01-08T03:24:49.723Z,91.03
2023-01-08T03:25:49.698Z,91.35
2023-01-08T03:26:49.738Z,91.44
2023-01-08T03:27:49.687Z,91.35
2023-01-08T03:28:49.674Z,91.65
2023-01-08T03:29:49.682Z,91.75
2023-01-08T03:30:49.751Z,91.86
2023-01-08T03:31:49.676Z,91.86
2023-01-08T03:32:49.640Z,91.65
2023-01-08T03:33:49.613Z,92.10
2023-01-08T03:34:49.637Z,92.21
2023-01-08T03:35:49.599Z,92.41
2023-01-08T03:36:49.613Z,92.21
2023-01-08T03:37:49.583Z,92.41
2023-01-08T03:38:49.649Z,92.31
2023-01-08T03:39:49.551Z,92.61
2023-01-08T03:40:49.548Z,92.61
2023-01-08T03:41:49.527Z,92.51
2023-01-08T03:42:49.609Z,92.36
2023-01-08T03:43:49.515Z,92.27
2023-01-08T03:44:49.499Z,92.16
2023-01-08T03:45:49.515Z,92.16
2023-01-08T03:46:49.577Z,92.36
2023-01-08T03:47:49.461Z,92.16
2023-01-08T03:48:49.479Z,92.16
2023-01-08T03:49:49.540Z,91.86
2023-01-08T03:50:49.681Z,91.65
2023-01-08T03:51:49.450Z,91.75
2023-01-08T03:52:49.516Z,91.75
2023-01-08T03:53:49.421Z,91.55
2023-01-08T03:54:49.409Z,91.61
2023-01-08T03:55:49.390Z,91.75
2023-01-08T03:56:49.402Z,91.86
2023-01-08T03:57:49.365Z,91.96
2023-01-08T03:58:49.561Z,91.96
2023-01-08T03:59:49.330Z,92.06
2023-01-08T04:00:49.329Z,91.75
2023-01-08T04:01:49.443Z,91.86
2023-01-08T04:02:49.321Z,91.96
2023-01-08T04:03:49.700Z,92.06
2023-01-08T04:04:49.299Z,91.96
2023-01-08T04:05:49.261Z,92.06
2023-01-08T04:06:49.291Z,92.16
2023-01-08T04:07:49.254Z,92.06
2023-01-08T04:08:49.360Z,92.06
2023-01-08T04:09:49.249Z,92.06
2023-01-08T04:10:49.228Z,92.16
2023-01-08T04:11:49.236Z,92.27
2023-01-08T04:12:49.226Z,92.16
2023-01-08T04:13:49.208Z,92.27
2023-01-08T04:14:49.213Z,92.36
2023-01-08T04:15:49.237Z,92.36
2023-01-08T04:16:49.165Z,92.47
2023-01-08T04:17:49.155Z,92.47
2023-01-08T04:18:49.165Z,92.57
2023-01-08T04:19:49.157Z,92.68
2023-01-08T04:20:49.123Z,92.88
2023-01-08T04:21:49.099Z,92.78
2023-01-08T04:22:49.110Z,92.68
2023-01-08T04:23:49.101Z,92.68
2023-01-08T04:24:49.126Z,92.68
2023-01-08T04:25:49.052Z,92.47
2023-01-08T04:26:49.058Z,92.36
2023-01-08T04:27:49.052Z,92.47
2023-01-08T04:28:49.044Z,92.47
2023-01-08T04:29:49.012Z,92.68
2023-01-08T04:30:49.127Z,92.57
2023-01-08T04:31:49.002Z,92.57
2023-01-08T04:32:49.014Z,92.57
2023-01-08T04:33:48.966Z,92.57
2023-01-08T04:34:48.975Z,92.88
2023-01-08T04:35:48.999Z,92.88
2023-01-08T04:36:49.130Z,92.78
2023-01-08T04:37:48.932Z,92.68
2023-01-08T04:38:48.926Z,92.57
2023-01-08T04:39:48.902Z,92.68
2023-01-08T04:40:48.901Z,92.57
2023-01-08T04:41:48.942Z,92.47
2023-01-08T04:42:48.899Z,92.47
2023-01-08T04:43:48.877Z,92.36
2023-01-08T04:44:48.931Z,92.27
2023-01-08T04:45:48.873Z,92.27
2023-01-08T04:46:48.858Z,92.36
2023-01-08T04:47:48.816Z,92.27
2023-01-08T04:48:48.821Z,92.27
2023-01-08T04:49:48.802Z,92.16
2023-01-08T04:50:48.799Z,92.02
2023-01-08T04:51:48.807Z,92.02
2023-01-08T04:52:48.778Z,91.82
2023-01-08T04:53:48.762Z,91.91
2023-01-08T04:54:48.761Z,92.02
2023-01-08T04:55:48.736Z,91.91
2023-01-08T04:56:48.744Z,92.02
2023-01-08T04:57:48.773Z,91.96
2023-01-08T04:58:48.723Z,92.06
2023-01-08T04:59:48.708Z,92.06
2023-01-08T05:00:48.681Z,92.16
2023-01-08T05:01:48.832Z,92.27
2023-01-08T05:02:48.852Z,92.27
2023-01-08T05:03:48.672Z,92.27
2023-01-08T05:04:48.664Z,92.06
2023-01-08T05:05:49.993Z,92.36
2023-01-08T05:06:48.629Z,92.36
2023-01-08T05:07:48.678Z,92.47
2023-01-08T05:08:48.613Z,92.47
2023-01-08T05:09:48.670Z,92.47
2023-01-08T05:10:48.580Z,92.47
2023-01-08T05:11:48.566Z,92.57
2023-01-08T05:12:48.611Z,92.68
2023-01-08T05:13:48.556Z,92.78
2023-01-08T05:14:48.586Z,92.88
2023-01-08T05:15:48.801Z,93.08
2023-01-08T05:16:48.508Z,93.08
2023-01-08T05:17:48.499Z,93.08
2023-01-08T05:18:48.508Z,93.08
2023-01-08T05:19:48.471Z,92.78
2023-01-08T05:20:48.513Z,92.78
2023-01-08T05:21:48.480Z,92.78
2023-01-08T05:22:48.473Z,92.78
2023-01-08T05:23:48.510Z,92.68
2023-01-08T05:24:48.457Z,92.57
2023-01-08T05:25:48.481Z,92.68
2023-01-08T05:26:48.977Z,92.68
2023-01-08T05:27:48.396Z,92.47
2023-01-08T05:28:48.415Z,92.36
2023-01-08T05:29:48.364Z,92.47
2023-01-08T05:30:48.412Z,92.47
2023-01-08T05:31:48.389Z,92.98
2023-01-08T05:32:48.364Z,93.39
2023-01-08T05:33:56.641Z,94.21
2023-01-08T05:34:48.328Z,94.32
2023-01-08T05:35:48.342Z,95.39
2023-01-08T05:36:48.350Z,96.51
2023-01-08T05:37:48.390Z,96.92
2023-01-08T05:38:48.438Z,97.38
2023-01-08T05:39:48.280Z,97.69
2023-01-08T05:40:48.250Z,98.45
2023-01-08T05:41:48.244Z,99.07
2023-01-08T05:42:48.228Z,99.38
2023-01-08T05:43:48.228Z,99.73
2023-01-08T05:44:48.284Z,99.63
2023-01-08T05:45:48.207Z,99.63
2023-01-08T05:46:48.225Z,99.32
2023-01-08T05:47:48.184Z,99.01
2023-01-08T05:48:48.154Z,98.70
2023-01-08T05:49:48.180Z,98.39
2023-01-08T05:50:48.165Z,98.80
2023-01-08T05:51:49.248Z,99.63
2023-01-08T05:52:48.150Z,99.42
2023-01-08T05:53:48.125Z,99.52
2023-01-08T05:54:48.112Z,99.42
2023-01-08T05:55:48.117Z,99.63
2023-01-08T05:56:48.079Z,99.63
2023-01-08T05:57:48.080Z,99.73
2023-01-08T05:58:48.066Z,99.83
2023-01-08T05:59:49.793Z,99.99
2023-01-08T06:00:48.093Z,99.99
2023-01-08T06:01:48.137Z,99.63
2023-01-08T06:02:48.258Z,99.93
2023-01-08T06:03:48.119Z,99.99
2023-01-08T06:04:48.045Z,99.99
2023-01-08T06:05:48.024Z,99.99
2023-01-08T06:06:48.006Z,99.99
2023-01-08T06:08:55.800Z,99.99
2023-01-08T06:09:56.774Z,99.99
2023-01-08T06:10:56.796Z,99.99
2023-01-08T06:11:56.736Z,99.99
2023-01-08T06:12:56.750Z,99.99
2023-01-08T06:13:56.845Z,99.99
2023-01-08T06:14:56.730Z,99.99
2023-01-08T06:15:56.959Z,99.99
2023-01-08T06:16:56.721Z,99.99
2023-01-08T06:17:56.711Z,99.99
2023-01-08T06:18:56.655Z,99.99
2023-01-08T06:19:56.655Z,99.99
2023-01-08T06:20:56.637Z,99.99
2023-01-08T06:21:56.822Z,99.99
2023-01-08T06:22:56.639Z,99.99
2023-01-08T06:23:56.603Z,99.99
2023-01-08T06:24:56.722Z,99.99
2023-01-08T06:25:56.644Z,99.99
2023-01-08T06:26:56.609Z,99.99
2023-01-08T06:27:56.591Z,99.99
2023-01-08T06:28:56.551Z,99.99
2023-01-08T06:29:56.552Z,99.99
2023-01-08T06:30:56.611Z,99.99
2023-01-08T06:31:56.527Z,99.99
2023-01-08T06:32:56.511Z,99.99
2023-01-08T06:33:56.512Z,99.99
2023-01-08T06:34:56.495Z,99.99
2023-01-08T06:35:56.485Z,99.99
2023-01-08T06:36:56.523Z,99.99
2023-01-08T06:37:56.471Z,99.99
2023-01-08T06:38:56.445Z,99.99
2023-01-08T06:39:56.434Z,99.99
2023-01-08T06:40:56.464Z,99.99
2023-01-08T06:41:56.415Z,99.99
2023-01-08T06:42:56.430Z,99.99
2023-01-08T06:43:56.377Z,99.99
2023-01-08T06:44:56.385Z,99.99
2023-01-08T06:45:56.375Z,99.99
2023-01-08T06:46:56.449Z,99.99
2023-01-08T06:47:56.369Z,99.99
2023-01-08T06:48:56.397Z,99.99
2023-01-08T06:49:56.338Z,99.99
2023-01-08T06:50:56.363Z,99.99
2023-01-08T06:51:56.355Z,99.99
2023-01-08T06:52:58.202Z,99.99
2023-01-08T06:54:02.826Z,99.56
2023-01-08T06:54:56.403Z,99.15
2023-01-08T06:55:56.322Z,98.02
2023-01-08T06:56:56.272Z,97.44
2023-01-08T06:57:56.663Z,94.46
2023-01-08T06:58:56.562Z,94.36
2023-01-08T06:59:56.522Z,94.98
2023-01-08T07:00:56.202Z,93.84
2023-01-08T07:01:56.496Z,93.33
2023-01-08T07:02:56.393Z,94.36
2023-01-08T07:03:56.197Z,94.60
2023-01-08T07:04:56.182Z,95.43
2023-01-08T07:05:56.205Z,95.84
2023-01-08T07:06:56.113Z,94.71
2023-01-08T07:07:56.088Z,95.64
2023-01-08T07:08:56.080Z,95.95
2023-01-08T07:09:56.072Z,95.58
2023-01-08T07:10:56.120Z,96.30
2023-01-08T07:11:56.073Z,96.92
2023-01-08T07:12:56.044Z,97.13
2023-01-08T07:13:56.184Z,97.43
2023-01-08T07:14:56.015Z,97.64
2023-01-08T07:15:56.091Z,98.25
2023-01-08T07:16:57.884Z,98.57
2023-01-08T07:17:55.991Z,98.97
2023-01-08T07:18:55.960Z,99.49
2023-01-08T07:19:55.952Z,99.80
2023-01-08T07:20:56.778Z,99.99
2023-01-08T07:21:55.953Z,99.99
2023-01-08T07:22:55.913Z,99.99
2023-01-08T07:23:55.935Z,99.99
2023-01-08T07:24:55.898Z,99.99
2023-01-08T07:25:55.908Z,99.99
2023-01-08T07:26:55.864Z,99.99
2023-01-08T07:28:53.528Z,99.99
2023-01-08T07:29:54.484Z,99.99
2023-01-08T07:30:54.569Z,99.99
2023-01-08T07:31:54.457Z,99.99
2023-01-08T07:32:54.505Z,99.99
2023-01-08T07:33:54.619Z,99.99
2023-01-08T07:34:54.442Z,99.99
2023-01-08T07:35:54.452Z,99.99
2023-01-08T07:36:54.704Z,99.99
2023-01-08T07:37:54.695Z,99.56
2023-01-08T07:38:54.549Z,99.25
2023-01-08T07:39:54.309Z,97.77
2023-01-08T07:40:54.364Z,97.15
2023-01-08T07:41:54.471Z,97.36
2023-01-08T07:42:54.300Z,97.15
2023-01-08T07:43:54.268Z,96.84
2023-01-08T07:44:54.265Z,96.53
2023-01-08T07:45:54.289Z,96.94
2023-01-08T07:46:54.955Z,97.15
2023-01-08T07:47:54.237Z,96.84
2023-01-08T07:48:54.718Z,96.33
2023-01-08T07:49:54.259Z,96.33
2023-01-08T07:50:54.547Z,96.84
2023-01-08T07:51:55.065Z,95.71
2023-01-08T07:52:55.062Z,96.84
2023-01-08T07:53:54.202Z,97.25
2023-01-08T07:54:54.190Z,96.94
2023-01-08T07:55:54.190Z,96.53
2023-01-08T07:56:54.164Z,96.73
2023-01-08T07:57:54.193Z,95.92
2023-01-08T07:58:54.318Z,96.33
2023-01-08T07:59:54.165Z,95.96
2023-01-08T08:00:54.155Z,96.33
2023-01-08T08:01:54.537Z,96.64
2023-01-08T08:02:54.213Z,96.84
2023-01-08T08:03:54.147Z,97.09
2023-01-08T08:04:54.055Z,96.99
2023-01-08T08:05:54.070Z,96.68
2023-01-08T08:06:54.070Z,96.58
2023-01-08T08:07:54.037Z,96.64
2023-01-08T08:08:54.027Z,96.78
2023-01-08T08:09:54.033Z,95.86
2023-01-08T08:10:54.131Z,96.27
2023-01-08T08:11:54.011Z,94.58
2023-01-08T08:12:54.016Z,94.62
2023-01-08T08:13:56.577Z,94.52
2023-01-08T08:14:54.000Z,94.21
2023-01-08T08:15:54.522Z,93.39
2023-01-08T08:16:53.938Z,93.39
2023-01-08T08:17:54.020Z,93.08
2023-01-08T08:18:53.947Z,92.87
2023-01-08T08:19:53.900Z,92.36
2023-01-08T08:20:53.927Z,92.25
2023-01-08T08:21:53.910Z,92.57
2023-01-08T08:22:53.867Z,92.97
2023-01-08T08:23:53.946Z,93.39
2023-01-08T08:24:53.884Z,92.67
2023-01-08T08:25:53.847Z,93.64
2023-01-08T08:26:53.861Z,91.78
2023-01-08T08:27:53.863Z,92.20
2023-01-08T08:28:53.804Z,92.20
2023-01-08T08:29:53.825Z,91.89
2023-01-08T08:30:53.789Z,90.66
2023-01-08T08:31:53.866Z,90.14
2023-01-08T08:32:53.853Z,88.86
2023-01-08T08:33:53.807Z,90.09
2023-01-08T08:34:53.755Z,90.41
2023-01-08T08:35:53.776Z,90.20
2023-01-08T08:36:53.807Z,90.61
2023-01-08T08:37:53.756Z,91.06
2023-01-08T08:38:53.867Z,91.06
2023-01-08T08:39:53.858Z,90.66
2023-01-08T08:40:53.674Z,90.66
2023-01-08T08:41:53.783Z,91.58
2023-01-08T08:42:53.676Z,90.55
2023-01-08T08:43:54.535Z,91.17
2023-01-08T08:44:53.685Z,91.27
2023-01-08T08:45:53.654Z,90.45
2023-01-08T08:46:53.735Z,90.75
2023-01-08T08:47:53.649Z,91.17
2023-01-08T08:48:53.596Z,90.45
2023-01-08T08:49:53.589Z,90.55
2023-01-08T08:50:53.615Z,90.55
2023-01-08T08:51:53.590Z,90.75
2023-01-08T08:52:53.550Z,90.66
2023-01-08T08:53:54.490Z,90.75
2023-01-08T08:54:53.804Z,91.47
2023-01-08T08:55:53.621Z,91.38
2023-01-08T08:56:54.543Z,91.68
2023-01-08T08:57:53.551Z,91.17
2023-01-08T08:58:53.507Z,91.38
2023-01-08T08:59:53.479Z,90.96
2023-01-08T09:00:53.643Z,91.38
2023-01-08T09:01:53.688Z,91.13
2023-01-08T09:02:53.588Z,91.13
2023-01-08T09:03:53.452Z,90.81
2023-01-08T09:04:53.444Z,90.92
2023-01-08T09:05:53.415Z,90.61
2023-01-08T09:06:53.422Z,90.20
2023-01-08T09:07:53.415Z,90.72
2023-01-08T09:08:53.725Z,89.38
2023-01-08T09:09:53.381Z,89.54
2023-01-08T09:10:53.353Z,90.06
2023-01-08T09:11:53.393Z,89.75
2023-01-08T09:12:53.365Z,89.75
2023-01-08T09:13:53.433Z,89.54
2023-01-08T09:14:53.321Z,88.51
2023-01-08T09:15:53.416Z,88.51
2023-01-08T09:16:53.326Z,89.03
2023-01-08T09:17:53.317Z,88.82
2023-01-08T09:18:53.373Z,88.72
2023-01-08T09:19:53.296Z,88.62
2023-01-08T09:20:53.254Z,88.37
2023-01-08T09:21:53.242Z,88.37
2023-01-08T09:22:53.253Z,88.27
2023-01-08T09:23:53.272Z,88.27
2023-01-08T09:24:53.237Z,88.27
2023-01-08T09:25:53.605Z,88.37
2023-01-08T09:26:53.207Z,88.17
2023-01-08T09:27:53.261Z,87.65
2023-01-08T09:28:53.209Z,88.27
2023-01-08T09:29:53.241Z,87.55
2023-01-08T09:30:53.269Z,87.13
2023-01-08T09:31:53.247Z,87.55
2023-01-08T09:32:53.264Z,87.45
2023-01-08T09:33:53.280Z,87.55
2023-01-08T09:34:53.146Z,87.20
2023-01-08T09:35:53.143Z,87.82
2023-01-08T09:36:53.107Z,87.30
2023-01-08T09:37:53.702Z,86.48
2023-01-08T09:38:53.366Z,86.48
2023-01-08T09:40:01.739Z,86.58
2023-01-08T09:40:53.139Z,86.38
2023-01-08T09:41:53.339Z,86.03
2023-01-08T09:42:53.147Z,86.30
2023-01-08T09:43:53.048Z,84.66
2023-01-08T09:44:53.109Z,84.00
2023-01-08T09:45:53.092Z,83.45
2023-01-08T09:46:53.115Z,82.53
2023-01-08T09:47:53.024Z,81.87
2023-01-08T09:48:53.183Z,80.91
2023-01-08T09:49:53.004Z,80.36
2023-01-08T09:50:53.085Z,80.16
2023-01-08T09:51:52.958Z,79.85
2023-01-08T09:52:52.937Z,80.33
2023-01-08T09:53:52.934Z,78.45
2023-01-08T09:54:53.220Z,77.70
2023-01-08T09:56:08.670Z,76.23
2023-01-08T09:56:52.907Z,75.41
2023-01-08T09:57:52.921Z,75.37
2023-01-08T09:58:52.949Z,75.89
2023-01-08T09:59:52.903Z,74.35
2023-01-08T10:00:52.929Z,74.90
2023-01-08T10:01:52.939Z,75.51
2023-01-08T10:02:52.850Z,75.68
2023-01-08T10:03:52.839Z,75.78
2023-01-08T10:04:54.453Z,75.65
2023-01-08T10:05:52.857Z,74.59
2023-01-08T10:06:52.805Z,73.27
2023-01-08T10:07:52.783Z,73.67
2023-01-08T10:08:52.804Z,73.77
2023-01-08T10:09:52.798Z,73.16
2023-01-08T10:10:52.795Z,73.57
2023-01-08T10:11:52.815Z,72.41
2023-01-08T10:12:52.715Z,73.33
2023-01-08T10:13:52.734Z,72.48
2023-01-08T10:14:54.400Z,72.31
2023-01-08T10:15:52.771Z,73.06
2023-01-08T10:16:52.681Z,72.72
2023-01-08T10:17:52.761Z,72.08
2023-01-08T10:18:52.824Z,72.45
2023-01-08T10:19:52.692Z,71.70
2023-01-08T10:20:54.678Z,70.04
2023-01-08T10:21:52.753Z,70.01
2023-01-08T10:22:52.707Z,68.58
2023-01-08T10:23:52.703Z,68.85
2023-01-08T10:24:52.597Z,68.04
2023-01-08T10:25:52.702Z,67.60
2023-01-08T10:26:54.417Z,67.57
2023-01-08T10:27:52.577Z,67.57
2023-01-08T10:28:52.560Z,69.32
2023-01-08T10:29:52.578Z,68.31
2023-01-08T10:30:53.005Z,69.15
2023-01-08T10:31:52.581Z,69.63
2023-01-08T10:32:54.635Z,69.02
2023-01-08T10:33:52.499Z,68.82
2023-01-08T10:34:52.989Z,68.51
2023-01-08T10:35:52.694Z,68.82
2023-01-08T10:36:52.499Z,69.93
2023-01-08T10:37:52.466Z,69.19
2023-01-08T10:38:52.455Z,67.74
2023-01-08T10:39:52.494Z,67.53
2023-01-08T10:40:52.425Z,68.96
2023-01-08T10:41:52.471Z,68.14
2023-01-08T10:42:52.519Z,68.04
2023-01-08T10:43:52.388Z,66.85
2023-01-08T10:44:52.407Z,68.92
2023-01-08T10:45:52.387Z,68.10
2023-01-08T10:46:52.358Z,69.80
2023-01-08T10:47:56.801Z,70.89
2023-01-08T10:48:52.362Z,70.48
2023-01-08T10:49:52.332Z,70.92
2023-01-08T10:50:52.311Z,72.00
2023-01-08T10:51:52.317Z,72.65
2023-01-08T10:52:52.313Z,72.65
2023-01-08T10:53:52.314Z,72.31
2023-01-08T10:54:52.271Z,72.58
2023-01-08T10:55:52.314Z,73.54
2023-01-08T10:56:52.317Z,75.21
2023-01-08T10:57:52.293Z,75.92
2023-01-08T10:58:52.462Z,76.26
2023-01-08T10:59:52.242Z,75.96
2023-01-08T11:00:52.443Z,76.88
2023-01-08T11:01:52.561Z,76.91
2023-01-08T11:02:52.189Z,77.32
2023-01-08T11:03:52.209Z,77.32
2023-01-08T11:04:52.187Z,77.29
2023-01-08T11:05:52.156Z,76.71
2023-01-08T11:06:52.148Z,77.32
2023-01-08T11:07:52.144Z,77.80
2023-01-08T11:08:52.149Z,78.61
2023-01-08T11:09:52.122Z,77.76
2023-01-08T11:10:52.101Z,76.84
2023-01-08T11:11:52.169Z,76.47
2023-01-08T11:12:52.185Z,76.98
2023-01-08T11:13:52.169Z,77.53
2023-01-08T11:14:52.567Z,77.94
2023-01-08T11:15:52.076Z,78.59
2023-01-08T11:16:52.085Z,79.00
2023-01-08T11:17:52.037Z,78.79
2023-01-08T11:18:52.012Z,78.79
2023-01-08T11:19:52.052Z,79.10
2023-01-08T11:20:52.015Z,79.00
2023-01-08T11:21:52.005Z,79.24
2023-01-08T11:22:51.981Z,79.10
2023-01-08T11:23:52.002Z,79.16
2023-01-08T11:24:51.976Z,78.24
2023-01-08T11:25:51.951Z,77.80
2023-01-08T11:26:51.934Z,77.66
2023-01-08T11:27:51.994Z,75.62
2023-01-08T11:28:51.925Z,75.82
2023-01-08T11:29:51.921Z,76.53
2023-01-08T11:30:51.891Z,76.53
2023-01-08T11:31:51.935Z,77.49
2023-01-08T11:32:52.204Z,76.67
2023-01-08T11:33:51.865Z,77.42
2023-01-08T11:34:51.870Z,77.49
2023-01-08T11:35:51.862Z,77.19
2023-01-08T11:36:51.910Z,77.39
2023-01-08T11:37:51.846Z,76.12
2023-01-08T11:38:51.825Z,75.17
2023-01-08T11:39:51.815Z,75.27
2023-01-08T11:40:51.817Z,74.56
2023-01-08T11:41:51.841Z,74.97
2023-01-08T11:42:51.775Z,75.07
2023-01-08T11:43:51.850Z,74.69
2023-01-08T11:44:51.750Z,74.52
2023-01-08T11:45:51.846Z,73.16
2023-01-08T11:46:51.739Z,71.47
2023-01-08T11:47:51.752Z,69.40
2023-01-08T11:48:51.729Z,68.88
2023-01-08T11:49:51.847Z,71.43
2023-01-08T11:50:51.728Z,69.49
2023-01-08T11:51:52.642Z,68.51
2023-01-08T11:52:51.836Z,70.04
2023-01-08T11:53:51.663Z,70.28
2023-01-08T11:54:51.686Z,71.73
2023-01-08T11:55:51.680Z,73.06
2023-01-08T11:56:51.624Z,72.08
2023-01-08T11:57:51.655Z,72.89
2023-01-08T11:58:51.619Z,73.84
2023-01-08T11:59:51.675Z,73.03
2023-01-08T12:00:51.646Z,74.49
2023-01-08T12:01:51.759Z,73.98
2023-01-08T12:02:51.662Z,74.32
2023-01-08T12:03:51.630Z,75.13
2023-01-08T12:04:51.559Z,75.24
2023-01-08T12:05:51.540Z,75.78
2023-01-08T12:06:51.553Z,76.90
2023-01-08T12:07:51.576Z,77.52
2023-01-08T12:08:51.489Z,76.90
2023-01-08T12:09:51.513Z,77.83
2023-01-08T12:10:51.470Z,77.86
2023-01-08T12:11:51.568Z,78.17
2023-01-08T12:12:51.509Z,77.66
2023-01-08T12:13:53.333Z,77.39
2023-01-08T12:14:51.506Z,77.59
2023-01-08T12:15:51.480Z,77.08
2023-01-08T12:16:51.434Z,77.08
2023-01-08T12:17:51.482Z,78.20
2023-01-08T12:18:51.391Z,77.39
2023-01-08T12:19:51.438Z,76.88
2023-01-08T12:20:51.376Z,78.52
2023-01-08T12:21:51.367Z,77.59
2023-01-08T12:22:51.351Z,77.59
2023-01-08T12:23:51.391Z,78.72
2023-01-08T12:24:51.368Z,79.53
2023-01-08T12:25:51.355Z,79.37
2023-01-08T12:26:51.368Z,79.98
2023-01-08T12:27:58.611Z,79.68
2023-01-08T12:28:51.415Z,79.82
2023-01-08T12:29:51.294Z,80.74
2023-01-08T12:30:51.278Z,80.83
2023-01-08T12:32:02.024Z,81.56
2023-01-08T12:32:51.347Z,81.86
2023-01-08T12:33:51.261Z,81.76
2023-01-08T12:34:51.262Z,82.27
2023-01-08T12:35:51.243Z,81.49
2023-01-08T12:36:51.241Z,82.31
2023-01-08T12:37:52.116Z,82.62
2023-01-08T12:38:51.259Z,82.51
2023-01-08T12:39:51.167Z,83.88
2023-01-08T12:40:51.162Z,84.60
2023-01-08T12:41:51.195Z,86.04
2023-01-08T12:43:00.522Z,85.63
2023-01-08T12:43:51.176Z,85.01
2023-01-08T12:44:51.145Z,84.50
2023-01-08T12:45:51.198Z,85.22
2023-01-08T12:46:51.128Z,86.18
2023-01-08T12:47:51.109Z,86.38
2023-01-08T12:48:52.006Z,87.30
2023-01-08T12:49:51.076Z,87.41
2023-01-08T12:50:51.125Z,87.10
2023-01-08T12:51:51.048Z,86.99
2023-01-08T12:52:51.065Z,87.61
2023-01-08T12:53:51.054Z,88.12
2023-01-08T12:54:51.073Z,87.82